Suco, Argentina
Current Conditions -  °F | °C
As of 1:00 AM on Thursday 18 Dec 2014 (Local Time) from SAOC Reporting Station
Clear Clear  
Wind Chill: 70°   Ceiling: Unl
Heat Index: 70°   Visibility: 6mi
Dew Point: 55°   Wind: 3mph
Humidity: 60%   Direction: 320°NW
Pressure: 29.94"   Gusts: NA
Location:  33.45°S, 64.83°W
Report Text: SAOC 180400Z 32003KT CAVOK 21/13 Q1014
Loading
Personal Weather Stations






























Interactive Weather Map New forecast layout! Learn more

10-Day Weather Forecast

Advertisements
Track Severe Weather on mobile